sensor_id;sensor_type;location;lat;lon;timestamp;temperature;humidity
17174;DHT22;8702;48.130;-1.696;2022-12-18T00:00:07;1.40;99.90
17174;DHT22;8702;48.130;-1.696;2022-12-18T00:09:59;1.10;99.90
17174;DHT22;8702;48.130;-1.696;2022-12-18T00:12:26;1.20;99.90
17174;DHT22;8702;48.130;-1.696;2022-12-18T00:14:53;1.30;99.90
17174;DHT22;8702;48.130;-1.696;2022-12-18T00:17:20;1.20;99.90
17174;DHT22;8702;48.130;-1.696;2022-12-18T00:19:47;1.40;99.90
17174;DHT22;8702;48.130;-1.696;2022-12-18T00:22:15;1.30;99.90
17174;DHT22;8702;48.130;-1.696;2022-12-18T00:24:45;1.30;99.90
17174;DHT22;8702;48.130;-1.696;2022-12-18T05:59:54;2.30;99.90
17174;DHT22;8702;48.130;-1.696;2022-12-18T06:02:21;2.30;99.90
17174;DHT22;8702;48.130;-1.696;2022-12-18T06:04:50;2.20;99.90
17174;DHT22;8702;48.130;-1.696;2022-12-18T06:07:16;2.20;99.90
17174;DHT22;8702;48.130;-1.696;2022-12-18T06:09:44;2.20;99.90
17174;DHT22;8702;48.130;-1.696;2022-12-18T06:14:38;2.20;99.90
17174;DHT22;8702;48.130;-1.696;2022-12-18T06:17:05;2.20;99.90
17174;DHT22;8702;48.130;-1.696;2022-12-18T06:19:31;2.20;99.90
17174;DHT22;8702;48.130;-1.696;2022-12-18T06:22:00;2.20;99.90
17174;DHT22;8702;48.130;-1.696;2022-12-18T06:24:27;2.20;99.90
17174;DHT22;8702;48.130;-1.696;2022-12-18T06:26:54;2.30;99.90
17174;DHT22;8702;48.130;-1.696;2022-12-18T06:29:21;2.20;99.90
17174;DHT22;8702;48.130;-1.696;2022-12-18T06:31:48;2.20;99.90
17174;DHT22;8702;48.130;-1.696;2022-12-18T06:34:15;2.20;99.90
17174;DHT22;8702;48.130;-1.696;2022-12-18T06:36:42;2.20;99.90
17174;DHT22;8702;48.130;-1.696;2022-12-18T06:39:10;2.30;99.90
17174;DHT22;8702;48.130;-1.696;2022-12-18T06:41:37;2.40;99.90
17174;DHT22;8702;48.130;-1.696;2022-12-18T06:44:04;2.40;99.90
17174;DHT22;8702;48.130;-1.696;2022-12-18T06:46:31;2.60;99.90
17174;DHT22;8702;48.130;-1.696;2022-12-18T06:48:58;2.50;99.90
17174;DHT22;8702;48.130;-1.696;2022-12-18T06:51:26;2.50;99.90
17174;DHT22;8702;48.130;-1.696;2022-12-18T06:53:53;2.60;99.90
17174;DHT22;8702;48.130;-1.696;2022-12-18T06:56:21;2.60;99.90
17174;DHT22;8702;48.130;-1.696;2022-12-18T06:58:50;2.60;99.90
17174;DHT22;8702;48.130;-1.696;2022-12-18T07:01:17;2.60;99.90
17174;DHT22;8702;48.130;-1.696;2022-12-18T07:03:44;2.60;99.90
17174;DHT22;8702;48.130;-1.696;2022-12-18T07:06:15;2.60;99.90
17174;DHT22;8702;48.130;-1.696;2022-12-18T09:09:44;4.00;99.90
17174;DHT22;8702;48.130;-1.696;2022-12-18T09:12:13;4.00;99.90
17174;DHT22;8702;48.130;-1.696;2022-12-18T09:14:40;3.90;99.90
17174;DHT22;8702;48.130;-1.696;2022-12-18T09:17:06;3.90;99.90
17174;DHT22;8702;48.130;-1.696;2022-12-18T09:19:33;4.00;99.90
17174;DHT22;8702;48.130;-1.696;2022-12-18T09:22:00;4.00;99.90
17174;DHT22;8702;48.130;-1.696;2022-12-18T09:24:27;3.90;99.90
17174;DHT22;8702;48.130;-1.696;2022-12-18T09:26:54;3.90;99.90
17174;DHT22;8702;48.130;-1.696;2022-12-18T09:29:23;3.80;99.90
17174;DHT22;8702;48.130;-1.696;2022-12-18T09:31:50;3.90;99.90
17174;DHT22;8702;48.130;-1.696;2022-12-18T09:34:17;3.90;99.90
17174;DHT22;8702;48.130;-1.696;2022-12-18T09:36:46;3.90;99.90
17174;DHT22;8702;48.130;-1.696;2022-12-18T09:39:13;3.80;99.90
17174;DHT22;8702;48.130;-1.696;2022-12-18T09:41:45;3.90;99.90
17174;DHT22;8702;48.130;-1.696;2022-12-18T09:44:23;3.80;99.90
17174;DHT22;8702;48.130;-1.696;2022-12-18T09:46:56;3.90;99.90
17174;DHT22;8702;48.130;-1.696;2022-12-18T09:49:27;4.00;99.90
17174;DHT22;8702;48.130;-1.696;2022-12-18T09:54:29;4.20;99.90
17174;DHT22;8702;48.130;-1.696;2022-12-18T09:56:58;4.10;99.90
17174;DHT22;8702;48.130;-1.696;2022-12-18T09:59:30;4.00;99.90
17174;DHT22;8702;48.130;-1.696;2022-12-18T10:01:58;4.00;99.90
17174;DHT22;8702;48.130;-1.696;2022-12-18T10:04:29;4.20;99.90
17174;DHT22;8702;48.130;-1.696;2022-12-18T10:07:00;4.10;99.90
17174;DHT22;8702;48.130;-1.696;2022-12-18T10:09:37;4.20;99.90
17174;DHT22;8702;48.130;-1.696;2022-12-18T10:12:12;4.30;99.90
17174;DHT22;8702;48.130;-1.696;2022-12-18T10:14:50;4.30;99.90
17174;DHT22;8702;48.130;-1.696;2022-12-18T10:17:26;4.20;99.90
17174;DHT22;8702;48.130;-1.696;2022-12-18T10:19:59;4.10;99.90
17174;DHT22;8702;48.130;-1.696;2022-12-18T10:22:42;4.10;99.90
17174;DHT22;8702;48.130;-1.696;2022-12-18T10:25:20;4.00;99.90
17174;DHT22;8702;48.130;-1.696;2022-12-18T10:35:18;4.30;99.90
17174;DHT22;8702;48.130;-1.696;2022-12-18T10:38:04;4.30;99.90
17174;DHT22;8702;48.130;-1.696;2022-12-18T10:40:31;4.20;99.90
17174;DHT22;8702;48.130;-1.696;2022-12-18T10:43:12;4.20;99.90
17174;DHT22;8702;48.130;-1.696;2022-12-18T10:45:42;4.20;99.90
17174;DHT22;8702;48.130;-1.696;2022-12-18T10:48:18;4.10;99.90
17174;DHT22;8702;48.130;-1.696;2022-12-18T10:50:49;4.10;99.90
17174;DHT22;8702;48.130;-1.696;2022-12-18T10:53:20;4.00;99.90
17174;DHT22;8702;48.130;-1.696;2022-12-18T10:55:48;4.20;99.90
17174;DHT22;8702;48.130;-1.696;2022-12-18T10:58:21;4.20;99.90
17174;DHT22;8702;48.130;-1.696;2022-12-18T11:01:05;4.20;99.90
17174;DHT22;8702;48.130;-1.696;2022-12-18T11:03:33;4.10;99.90
17174;DHT22;8702;48.130;-1.696;2022-12-18T11:08:31;4.20;99.90
